Aviation Digital Data Service (ADDS)

Output produced by METARs form (1247 UTC 20 January 2018)
found at http://aviationweather.gov/adds/metars/
 
KGLS 201214Z 10008KT 1/4SM FG BKN017 OVC060 14/14 A3009 RMK AO2 T01440139